createdAt,value
2019-01-21T00:02:13.146Z,101088.77
2019-01-21T00:04:42.121Z,101089.91
2019-01-21T00:07:30.056Z,101091.50
2019-01-21T00:10:18.579Z,101095.70
2019-01-21T00:24:45.269Z,101105.88
2019-01-21T00:27:14.011Z,101107.92
2019-01-21T00:29:42.669Z,101108.39
2019-01-21T00:32:11.294Z,101114.01
2019-01-21T00:34:39.920Z,101115.91
2019-01-21T00:37:08.596Z,101110.03
2019-01-21T00:39:37.390Z,101110.30
2019-01-21T00:42:26.759Z,101108.43
2019-01-21T00:44:55.402Z,101109.38
2019-01-21T00:47:29.821Z,101114.16
2019-01-21T00:49:54.546Z,101111.45
2019-01-21T00:52:23.225Z,101112.64
2019-01-21T00:54:51.845Z,101112.95
2019-01-21T00:57:20.556Z,101116.94
2019-01-21T00:59:49.236Z,101115.64
2019-01-21T01:02:17.915Z,101111.91
2019-01-21T01:04:46.601Z,101121.87
2019-01-21T01:07:15.337Z,101117.89
2019-01-21T01:09:44.022Z,101121.51
2019-01-21T01:12:12.710Z,101121.42
2019-01-21T01:14:41.513Z,101119.58
2019-01-21T01:17:10.121Z,101124.70
2019-01-21T01:19:38.767Z,101122.63
2019-01-21T01:22:07.522Z,101126.48
2019-01-21T01:24:36.166Z,101124.03
2019-01-21T01:27:04.862Z,101117.77
2019-01-21T01:29:33.515Z,101129.08
2019-01-21T01:32:02.221Z,101123.67
2019-01-21T01:34:30.947Z,101131.86
2019-01-21T01:36:59.629Z,101134.00
2019-01-21T01:39:28.351Z,101133.38
2019-01-21T01:41:56.974Z,101132.88
2019-01-21T01:44:25.926Z,101132.13
2019-01-21T01:46:54.565Z,101122.98
2019-01-21T01:49:23.296Z,101132.16
2019-01-21T01:51:52.029Z,101128.67
2019-01-21T01:54:20.703Z,101127.82
2019-01-21T01:56:49.448Z,101132.40
2019-01-21T01:59:18.182Z,101132.43
2019-01-21T02:01:46.821Z,101144.27
2019-01-21T02:04:15.445Z,101140.14
2019-01-21T02:06:44.134Z,101140.24
2019-01-21T02:09:12.838Z,101145.56
2019-01-21T02:11:41.783Z,101141.35
2019-01-21T02:14:10.467Z,101141.35
2019-01-21T02:16:39.123Z,101138.58
2019-01-21T02:19:07.902Z,101134.72
2019-01-21T02:21:37.664Z,101132.20
2019-01-21T02:24:08.658Z,101128.77
2019-01-21T02:27:15.787Z,101127.43
2019-01-21T02:30:23.293Z,101134.81
2019-01-21T02:33:20.321Z,101137.66
2019-01-21T02:36:27.448Z,101144.33
2019-01-21T02:39:21.218Z,101143.41
2019-01-21T02:42:05.578Z,101135.11
2019-01-21T02:45:12.687Z,101137.98
2019-01-21T02:48:03.142Z,101135.47
2019-01-21T02:51:10.253Z,101140.50
2019-01-21T02:54:03.664Z,101140.06
2019-01-21T02:57:10.834Z,101132.98
2019-01-21T03:00:17.918Z,101131.83
2019-01-21T03:03:25.041Z,101136.34
2019-01-21T03:06:32.176Z,101126.44
2019-01-21T03:09:39.317Z,101127.78
2019-01-21T03:12:46.438Z,101134.19
2019-01-21T03:15:53.533Z,101128.86
2019-01-21T03:18:46.392Z,101134.24
2019-01-21T03:21:53.545Z,101130.67
2019-01-21T03:25:00.678Z,101122.73
2019-01-21T03:28:08.075Z,101129.36
2019-01-21T03:34:34.391Z,101126.91
2019-01-21T03:37:41.516Z,101132.63
2019-01-21T03:40:48.604Z,101127.45
2019-01-21T03:43:55.740Z,101127.39
2019-01-21T03:46:48.872Z,101129.51
2019-01-21T03:49:24.471Z,101133.09
2019-01-21T03:52:19.153Z,101130.16
2019-01-21T03:55:09.340Z,101129.20
2019-01-21T03:58:16.436Z,101126.25
2019-01-21T04:01:07.792Z,101136.14
2019-01-21T04:04:02.113Z,101135.03
2019-01-21T04:07:09.292Z,101143.42
2019-01-21T04:10:16.418Z,101142.58
2019-01-21T04:13:08.549Z,101143.27
2019-01-21T04:16:04.682Z,101144.98
2019-01-21T04:18:57.292Z,101143.17
2019-01-21T04:22:04.419Z,101146.89
2019-01-21T04:25:11.549Z,101149.69
2019-01-21T04:28:18.668Z,101148.05
2019-01-21T04:31:26.329Z,101151.56
2019-01-21T04:34:11.445Z,101148.89
2019-01-21T04:37:20.244Z,101146.44
2019-01-21T04:40:27.366Z,101147.21
2019-01-21T04:43:23.470Z,101148.22
2019-01-21T04:46:15.495Z,101155.50
2019-01-21T04:49:22.661Z,101153.74
2019-01-21T04:52:29.807Z,101154.59
2019-01-21T04:55:36.963Z,101160.22
2019-01-21T04:58:44.075Z,101151.08
2019-01-21T05:01:51.303Z,101153.98
2019-01-21T05:04:58.424Z,101157.11
2019-01-21T05:07:52.418Z,101154.30
2019-01-21T05:10:45.991Z,101152.53
2019-01-21T05:17:11.365Z,101154.94
2019-01-21T05:20:18.541Z,101161.52
2019-01-21T05:23:25.656Z,101161.27
2019-01-21T05:26:32.748Z,101169.50
2019-01-21T05:29:39.888Z,101167.93
2019-01-21T05:32:47.019Z,101166.53
2019-01-21T05:35:54.148Z,101170.17
2019-01-21T05:39:01.259Z,101172.97
2019-01-21T05:42:08.386Z,101174.36
2019-01-21T05:45:15.533Z,101171.39
2019-01-21T05:50:30.980Z,101165.86
2019-01-21T05:53:38.097Z,101173.84
2019-01-21T05:56:45.292Z,101163.83
2019-01-21T06:02:47.026Z,101172.39
2019-01-21T06:05:49.051Z,101171.30
2019-01-21T06:08:56.184Z,101176.83
2019-01-21T06:11:50.806Z,101172.91
2019-01-21T06:14:57.922Z,101175.06
2019-01-21T06:18:05.055Z,101183.23
2019-01-21T06:21:12.176Z,101183.63
2019-01-21T06:23:48.226Z,101184.26
2019-01-21T06:26:55.320Z,101190.17
2019-01-21T06:30:02.465Z,101192.23
2019-01-21T06:33:09.617Z,101187.66
2019-01-21T06:36:16.741Z,101189.94
2019-01-21T06:39:23.838Z,101185.45
2019-01-21T06:42:30.947Z,101190.33
2019-01-21T06:45:38.082Z,101194.70
2019-01-21T06:48:32.581Z,101194.46
2019-01-21T06:51:39.686Z,101195.16
2019-01-21T06:54:32.045Z,101195.77
2019-01-21T06:57:26.561Z,101195.28
2019-01-21T07:00:33.706Z,101192.21
2019-01-21T07:06:45.643Z,101189.08
2019-01-21T07:09:37.148Z,101197.00
2019-01-21T07:12:22.121Z,101192.91
2019-01-21T07:15:29.231Z,101192.55
2019-01-21T07:18:36.348Z,101199.53
2019-01-21T07:21:43.461Z,101198.31
2019-01-21T07:24:50.568Z,101204.31
2019-01-21T07:27:57.684Z,101202.05
2019-01-21T07:31:04.843Z,101208.55
2019-01-21T07:34:12.026Z,101215.89
2019-01-21T07:36:51.059Z,101215.40
2019-01-21T07:39:58.185Z,101218.08
2019-01-21T07:43:05.322Z,101215.39
2019-01-21T07:46:12.475Z,101223.23
2019-01-21T07:49:19.599Z,101215.66
2019-01-21T07:52:33.502Z,101212.31
2019-01-21T07:55:09.105Z,101212.50
2019-01-21T07:58:04.956Z,101214.84
2019-01-21T08:01:12.113Z,101210.80
2019-01-21T08:04:19.569Z,101214.20
2019-01-21T08:06:58.643Z,101212.43
2019-01-21T08:10:05.356Z,101211.70
2019-01-21T08:13:12.478Z,101226.00
2019-01-21T08:16:19.611Z,101220.84
2019-01-21T08:19:26.741Z,101227.00
2019-01-21T08:22:33.865Z,101227.52
2019-01-21T08:25:29.215Z,101233.60
2019-01-21T08:28:36.358Z,101228.52
2019-01-21T08:31:36.838Z,101234.42
2019-01-21T08:34:43.982Z,101236.09
2019-01-21T08:37:36.303Z,101235.61
2019-01-21T08:40:31.170Z,101237.01
2019-01-21T08:43:38.293Z,101239.68
2019-01-21T08:46:45.439Z,101232.51
2019-01-21T08:49:52.555Z,101232.87
2019-01-21T08:52:44.637Z,101238.59
2019-01-21T08:55:51.767Z,101235.84
2019-01-21T08:58:44.372Z,101248.36
2019-01-21T09:01:51.493Z,101248.66
2019-01-21T09:04:58.629Z,101247.87
2019-01-21T09:07:53.481Z,101246.22
2019-01-21T09:10:46.326Z,101254.02
2019-01-21T09:13:53.447Z,101255.59
2019-01-21T09:17:00.579Z,101259.16
2019-01-21T09:20:10.814Z,101261.59
2019-01-21T09:23:16.575Z,101267.42
2019-01-21T09:26:23.696Z,101267.17
2019-01-21T09:29:15.332Z,101263.84
2019-01-21T09:32:22.427Z,101267.60
2019-01-21T09:35:18.144Z,101263.12
2019-01-21T09:38:25.261Z,101266.33
2019-01-21T09:41:32.379Z,101263.44
2019-01-21T09:44:23.179Z,101261.02
2019-01-21T09:46:51.308Z,101261.89
2019-01-21T09:49:18.689Z,101271.13
2019-01-21T09:52:28.470Z,101269.38
2019-01-21T09:54:57.182Z,101269.00
2019-01-21T10:00:40.720Z,101268.64
2019-01-21T10:03:30.156Z,101273.13
2019-01-21T10:06:21.458Z,101259.95
2019-01-21T10:09:16.892Z,101261.80
2019-01-21T10:12:23.990Z,101261.43
2019-01-21T10:15:31.110Z,101265.45
2019-01-21T10:18:23.927Z,101261.24
2019-01-21T10:21:31.086Z,101258.03
2019-01-21T10:24:22.941Z,101251.23
2019-01-21T10:27:30.053Z,101244.58
2019-01-21T10:30:30.019Z,101242.10
2019-01-21T10:33:37.142Z,101237.89
2019-01-21T10:36:44.295Z,101231.05
2019-01-21T10:39:51.427Z,101234.55
2019-01-21T10:42:58.570Z,101232.14
2019-01-21T10:45:54.051Z,101233.45
2019-01-21T10:48:45.602Z,101227.70
2019-01-21T10:51:52.740Z,101219.90
2019-01-21T10:54:59.855Z,101218.47
2019-01-21T10:58:07.002Z,101214.97
2019-01-21T11:01:00.429Z,101198.25
2019-01-21T11:04:07.556Z,101200.71
2019-01-21T11:07:02.778Z,101203.61
2019-01-21T11:09:53.598Z,101200.77
2019-01-21T11:12:45.154Z,101200.00
2019-01-21T11:15:35.572Z,101198.86
2019-01-21T11:18:42.677Z,101203.47
2019-01-21T11:21:49.797Z,101197.45
2019-01-21T11:24:56.894Z,101192.56
2019-01-21T11:28:04.005Z,101196.67
2019-01-21T11:31:11.147Z,101190.95
2019-01-21T11:34:18.262Z,101194.05
2019-01-21T11:37:13.286Z,101177.25
2019-01-21T11:40:20.393Z,101170.30
2019-01-21T11:43:27.533Z,101170.38
2019-01-21T11:46:34.651Z,101170.42
2019-01-21T11:49:25.943Z,101170.27
2019-01-21T11:52:04.851Z,101168.67
2019-01-21T11:55:11.958Z,101171.77
2019-01-21T11:58:19.096Z,101164.36
2019-01-21T12:01:26.223Z,101165.09
2019-01-21T12:04:16.599Z,101167.40
2019-01-21T12:07:11.433Z,101157.45
2019-01-21T12:10:18.578Z,101157.25
2019-01-21T12:13:21.497Z,101150.72
2019-01-21T12:16:28.706Z,101137.48
2019-01-21T12:19:19.953Z,101143.88
2019-01-21T12:22:27.062Z,101144.66
2019-01-21T12:25:05.213Z,101132.13
2019-01-21T12:27:57.111Z,101124.97
2019-01-21T12:31:04.188Z,101125.81
2019-01-21T12:34:11.314Z,101122.38
2019-01-21T12:37:06.004Z,101113.88
2019-01-21T12:39:57.724Z,101120.72
2019-01-21T12:43:09.174Z,101117.06
2019-01-21T12:45:49.255Z,101113.02
2019-01-21T12:48:56.397Z,101102.68
2019-01-21T12:52:03.499Z,101104.98
2019-01-21T12:55:10.624Z,101097.63
2019-01-21T12:58:17.756Z,101095.94
2019-01-21T13:01:24.873Z,101099.39
2019-01-21T13:04:31.980Z,101094.11
2019-01-21T13:07:39.075Z,101084.55
2019-01-21T13:10:46.191Z,101083.00
2019-01-21T13:13:38.418Z,101077.14
2019-01-21T13:16:45.527Z,101073.58
2019-01-21T13:19:52.658Z,101068.26
2019-01-21T13:22:59.786Z,101067.08
2019-01-21T13:25:43.902Z,101065.82
2019-01-21T13:28:34.701Z,101060.09
2019-01-21T13:31:41.880Z,101046.80
2019-01-21T13:34:48.996Z,101032.46
2019-01-21T13:37:43.863Z,101036.06
2019-01-21T13:40:50.990Z,101031.73
2019-01-21T13:43:58.125Z,101029.58
2019-01-21T13:46:53.415Z,101032.46
2019-01-21T13:49:33.275Z,101019.69
2019-01-21T13:52:40.399Z,101003.42
2019-01-21T13:55:47.536Z,101006.27
2019-01-21T13:58:49.764Z,101024.48
2019-01-21T14:01:56.875Z,101024.85
2019-01-21T14:04:52.142Z,101016.08
2019-01-21T14:07:59.258Z,101022.91
2019-01-21T14:11:06.384Z,101011.91
2019-01-21T14:13:57.022Z,101014.67
2019-01-21T14:16:59.015Z,101010.50
2019-01-21T14:20:06.135Z,101010.13
2019-01-21T14:23:13.262Z,101005.70
2019-01-21T14:26:20.384Z,101008.31
2019-01-21T14:29:27.489Z,101012.16
2019-01-21T14:32:34.635Z,101005.23
2019-01-21T14:35:41.729Z,101007.99
2019-01-21T14:38:48.859Z,100997.69
2019-01-21T14:41:55.977Z,100993.73
2019-01-21T14:45:03.090Z,100989.89
2019-01-21T14:48:06.118Z,100990.11
2019-01-21T14:51:13.211Z,100987.50
2019-01-21T14:54:20.374Z,100978.30
2019-01-21T14:57:27.503Z,100978.17
2019-01-21T15:00:21.869Z,100986.41
2019-01-21T15:03:02.126Z,100995.38
2019-01-21T15:06:09.336Z,101004.11
2019-01-21T15:09:20.741Z,100994.09
2019-01-21T15:12:27.820Z,100997.53
2019-01-21T15:15:22.687Z,100997.53
2019-01-21T15:18:17.441Z,100991.89
2019-01-21T15:21:07.897Z,100990.83
2019-01-21T15:24:15.240Z,100981.38
2019-01-21T15:27:07.520Z,100983.78
2019-01-21T15:30:00.027Z,100982.09
2019-01-21T15:32:51.758Z,100976.53
2019-01-21T15:35:58.882Z,100978.19
2019-01-21T15:39:06.000Z,100976.40
2019-01-21T15:42:10.762Z,100971.34
2019-01-21T15:45:18.004Z,100972.18
2019-01-21T15:48:13.545Z,100975.48
2019-01-21T15:51:22.446Z,100973.76
2019-01-21T15:54:29.569Z,100975.25
2019-01-21T15:57:29.446Z,100976.42
2019-01-21T16:00:36.616Z,100971.17
2019-01-21T16:03:43.772Z,100963.62
2019-01-21T16:06:50.940Z,100968.47
2019-01-21T16:09:32.568Z,100970.94
2019-01-21T16:12:25.269Z,100962.04
2019-01-21T16:18:28.808Z,100979.11
2019-01-21T16:33:20.633Z,100991.19
2019-01-21T16:36:27.934Z,100985.25
2019-01-21T16:39:36.387Z,100975.55
2019-01-21T16:51:08.514Z,100977.59
2019-01-21T16:57:28.287Z,100973.73
2019-01-21T17:00:01.901Z,100965.14
2019-01-21T17:05:25.820Z,100982.23
2019-01-21T17:07:54.572Z,100985.92
2019-01-21T17:10:23.343Z,100980.69
2019-01-21T17:12:52.037Z,100980.98
2019-01-21T17:15:20.715Z,100989.82
2019-01-21T17:17:49.334Z,100991.31
2019-01-21T17:20:19.877Z,100999.27
2019-01-21T17:22:48.606Z,100992.63
2019-01-21T17:25:17.450Z,100991.30
2019-01-21T17:27:46.200Z,100987.72
2019-01-21T17:30:15.586Z,100985.95
2019-01-21T17:32:44.332Z,100982.81
2019-01-21T17:35:13.676Z,100986.98
2019-01-21T17:37:42.629Z,100978.97
2019-01-21T17:40:13.327Z,100979.14
2019-01-21T17:42:42.141Z,100967.28
2019-01-21T17:45:13.774Z,100971.95
2019-01-21T17:47:42.629Z,100965.80
2019-01-21T17:50:12.088Z,100973.21
2019-01-21T17:52:40.907Z,100961.05
2019-01-21T17:55:09.825Z,100968.66
2019-01-21T17:57:38.611Z,100967.63
2019-01-21T18:03:02.852Z,100958.13
2019-01-21T18:05:31.695Z,100955.05
2019-01-21T18:08:00.456Z,100952.66
2019-01-21T18:10:29.176Z,100943.22
2019-01-21T18:12:57.943Z,100943.22
2019-01-21T18:15:26.619Z,100935.54
2019-01-21T18:17:55.256Z,100954.45
2019-01-21T18:20:27.407Z,100954.92
2019-01-21T18:23:17.761Z,100960.15
2019-01-21T18:28:46.796Z,100946.43
2019-01-21T18:31:16.084Z,100929.92
2019-01-21T18:33:50.074Z,100934.66
2019-01-21T18:36:24.102Z,100937.41
2019-01-21T18:38:54.099Z,100939.66
2019-01-21T18:41:23.208Z,100936.23
2019-01-21T18:43:57.354Z,100937.42
2019-01-21T18:46:26.580Z,100936.21
2019-01-21T18:49:22.804Z,100929.58
2019-01-21T18:55:02.059Z,100944.41
2019-01-21T18:57:20.417Z,100947.03
2019-01-21T19:02:52.146Z,100951.67
2019-01-21T19:05:21.874Z,100944.61
2019-01-21T19:14:12.667Z,100959.80
2019-01-21T19:16:45.144Z,100963.77
2019-01-21T19:21:53.617Z,100960.36
2019-01-21T19:27:31.789Z,100963.66
2019-01-21T19:35:41.868Z,100957.88
2019-01-21T19:38:20.573Z,100962.75
2019-01-21T19:40:50.072Z,100951.84
2019-01-21T19:44:34.504Z,100944.27
2019-01-21T19:45:50.860Z,100947.18
2019-01-21T19:48:19.790Z,100953.70
2019-01-21T19:53:44.647Z,100950.69
2019-01-21T19:58:57.691Z,100955.20
2019-01-21T20:01:26.975Z,100958.76
2019-01-21T20:04:15.528Z,100952.66
2019-01-21T20:06:45.398Z,100950.59
2019-01-21T20:14:49.039Z,100939.84
2019-01-21T20:20:32.482Z,100943.56
2019-01-21T20:26:10.542Z,100933.16
2019-01-21T20:28:40.199Z,100930.05
2019-01-21T20:31:29.132Z,100930.73
2019-01-21T20:33:58.848Z,100927.23
2019-01-21T20:37:10.721Z,100924.48
2019-01-21T20:42:30.415Z,100918.16
2019-01-21T20:47:48.946Z,100912.48
2019-01-21T20:50:58.793Z,100910.20
2019-01-21T20:53:28.986Z,100904.58
2019-01-21T21:05:06.422Z,100899.52
2019-01-21T21:07:59.846Z,100898.02
2019-01-21T21:10:31.714Z,100890.07
2019-01-21T21:13:01.415Z,100889.22
2019-01-21T21:18:45.361Z,100895.25
2019-01-21T21:21:14.380Z,100899.92
2019-01-21T21:23:44.767Z,100895.16
2019-01-21T21:26:53.912Z,100897.02
2019-01-21T21:32:38.965Z,100896.83
2019-01-21T21:35:08.078Z,100890.87
2019-01-21T21:37:58.292Z,100890.80
2019-01-21T21:40:28.291Z,100888.86
2019-01-21T21:43:00.208Z,100884.86
2019-01-21T21:46:03.367Z,100888.24
2019-01-21T21:57:25.102Z,100883.14
2019-01-21T21:59:54.777Z,100884.23
2019-01-21T22:02:27.082Z,100885.30
2019-01-21T22:04:56.622Z,100878.70
2019-01-21T22:10:28.960Z,100879.18
2019-01-21T22:13:02.832Z,100879.06
2019-01-21T22:15:32.272Z,100876.63
2019-01-21T22:18:02.223Z,100872.67
2019-01-21T22:20:32.417Z,100864.10
2019-01-21T22:23:04.778Z,100870.07
2019-01-21T22:26:02.284Z,100870.07
2019-01-21T22:28:43.912Z,100869.30
2019-01-21T22:31:13.254Z,100874.37
2019-01-21T22:33:45.443Z,100873.49
2019-01-21T22:36:20.587Z,100871.34
2019-01-21T22:38:53.266Z,100867.61
2019-01-21T22:41:23.912Z,100863.00
2019-01-21T22:43:53.083Z,100862.55
2019-01-21T22:52:01.593Z,100855.41
2019-01-21T22:55:21.798Z,100862.62
2019-01-21T22:57:40.665Z,100868.28
2019-01-21T23:03:28.118Z,100861.48
2019-01-21T23:05:57.355Z,100861.69
2019-01-21T23:08:27.199Z,100857.62
2019-01-21T23:10:56.168Z,100858.16
2019-01-21T23:16:19.072Z,100851.38
2019-01-21T23:18:50.968Z,100841.51
2019-01-21T23:21:20.140Z,100838.06
2019-01-21T23:24:08.456Z,100843.44
2019-01-21T23:29:32.445Z,100840.58
2019-01-21T23:32:01.593Z,100842.05
2019-01-21T23:34:32.087Z,100837.83
2019-01-21T23:37:00.998Z,100835.40
2019-01-21T23:39:29.821Z,100835.09
2019-01-21T23:41:58.702Z,100832.35
2019-01-21T23:44:27.615Z,100840.66
2019-01-21T23:46:58.998Z,100830.97
2019-01-21T23:49:27.939Z,100828.20
2019-01-21T23:51:57.792Z,100830.70
2019-01-21T23:54:26.539Z,100831.87
2019-01-21T23:56:56.138Z,100826.89
2019-01-21T23:59:25.047Z,100813.52
